createdAt,value
2023-07-03T00:02:05.162Z,16.93
2023-07-03T00:04:33.930Z,16.51
2023-07-03T00:07:01.778Z,16.64
2023-07-03T00:09:30.787Z,16.75
2023-07-03T00:11:58.720Z,16.79
2023-07-03T00:14:26.120Z,16.76
2023-07-03T00:16:53.994Z,16.45
2023-07-03T00:19:21.769Z,16.35
2023-07-03T00:21:49.657Z,16.39
2023-07-03T00:24:17.152Z,16.34
2023-07-03T00:26:46.437Z,15.92
2023-07-03T00:29:14.035Z,15.95
2023-07-03T00:31:41.923Z,15.87
2023-07-03T00:34:09.403Z,16.04
2023-07-03T00:36:37.328Z,16.24
2023-07-03T00:39:04.816Z,16.26
2023-07-03T00:41:32.635Z,16.59
2023-07-03T00:44:01.673Z,16.78
2023-07-03T00:46:29.901Z,16.72
2023-07-03T00:48:57.634Z,16.63
2023-07-03T00:51:25.873Z,16.40
2023-07-03T00:53:53.325Z,16.51
2023-07-03T00:56:21.176Z,16.67
2023-07-03T00:58:48.655Z,16.70
2023-07-03T01:01:26.653Z,16.73
2023-07-03T01:04:01.357Z,16.78
2023-07-03T01:06:37.728Z,16.98
2023-07-03T01:09:05.535Z,16.99
2023-07-03T01:11:33.686Z,17.08
2023-07-03T01:14:03.204Z,17.01
2023-07-03T01:16:34.899Z,16.85
2023-07-03T01:19:03.326Z,16.77
2023-07-03T01:21:42.901Z,16.93
2023-07-03T01:24:15.527Z,16.88
2023-07-03T01:26:47.303Z,16.91
2023-07-03T01:29:16.385Z,16.99
2023-07-03T01:31:45.055Z,17.13
2023-07-03T01:34:13.568Z,17.23
2023-07-03T01:36:42.597Z,17.09
2023-07-03T01:39:10.199Z,17.25
2023-07-03T01:41:39.125Z,17.17
2023-07-03T01:44:08.034Z,17.26
2023-07-03T01:46:35.826Z,17.34
2023-07-03T01:49:03.413Z,16.91
2023-07-03T01:51:38.645Z,17.01
2023-07-03T01:54:12.919Z,16.91
2023-07-03T01:56:45.544Z,16.95
2023-07-03T01:59:17.122Z,17.02
2023-07-03T02:01:50.739Z,17.03
2023-07-03T02:04:25.285Z,17.14
2023-07-03T02:06:54.698Z,16.95
2023-07-03T02:09:22.753Z,17.03
2023-07-03T02:11:52.835Z,17.14
2023-07-03T02:14:21.708Z,17.13
2023-07-03T02:16:49.492Z,16.98
2023-07-03T02:19:17.156Z,16.97
2023-07-03T02:21:45.199Z,17.05
2023-07-03T02:24:12.840Z,16.88
2023-07-03T02:26:40.850Z,17.01
2023-07-03T02:29:08.393Z,17.07
2023-07-03T02:31:37.724Z,17.19
2023-07-03T02:34:05.359Z,17.04
2023-07-03T02:36:34.870Z,16.86
2023-07-03T02:39:02.692Z,16.64
2023-07-03T02:41:30.448Z,16.66
2023-07-03T02:43:58.040Z,16.64
2023-07-03T02:46:26.191Z,16.60
2023-07-03T02:48:55.281Z,16.75
2023-07-03T02:51:23.687Z,16.89
2023-07-03T02:53:51.362Z,16.92
2023-07-03T02:56:19.477Z,16.97
2023-07-03T02:58:46.877Z,16.74
2023-07-03T03:01:15.326Z,16.61
2023-07-03T03:03:42.794Z,16.79
2023-07-03T03:06:12.206Z,16.85
2023-07-03T03:08:39.691Z,16.91
2023-07-03T03:11:07.604Z,16.97
2023-07-03T03:13:35.194Z,16.96
2023-07-03T03:16:03.008Z,17.00
2023-07-03T03:18:30.506Z,17.10
2023-07-03T03:20:58.445Z,17.27
2023-07-03T03:23:27.485Z,17.24
2023-07-03T03:25:55.339Z,17.22
2023-07-03T03:28:25.518Z,17.15
2023-07-03T03:30:53.571Z,17.33
2023-07-03T03:33:21.089Z,17.34
2023-07-03T03:35:49.114Z,17.38
2023-07-03T03:38:16.874Z,17.45
2023-07-03T03:40:54.837Z,17.39
2023-07-03T03:43:22.495Z,17.36
2023-07-03T03:45:57.145Z,17.26
2023-07-03T03:48:25.889Z,17.25
2023-07-03T03:50:54.521Z,17.16
2023-07-03T03:53:22.507Z,17.22
2023-07-03T03:55:53.128Z,17.30
2023-07-03T03:58:22.160Z,17.45
2023-07-03T04:00:50.277Z,17.68
2023-07-03T04:03:18.324Z,17.64
2023-07-03T04:05:46.487Z,17.71
2023-07-03T04:08:14.050Z,17.55
2023-07-03T04:10:41.898Z,17.25
2023-07-03T04:13:11.607Z,17.22
2023-07-03T04:15:51.651Z,17.30
2023-07-03T04:18:20.481Z,17.40
2023-07-03T04:20:49.071Z,17.48
2023-07-03T04:23:16.930Z,17.46
2023-07-03T04:25:45.026Z,17.43
2023-07-03T04:28:17.106Z,17.61
2023-07-03T04:30:45.358Z,17.73
2023-07-03T04:33:13.003Z,17.69
2023-07-03T04:35:41.793Z,17.64
2023-07-03T04:38:09.641Z,17.69
2023-07-03T04:40:38.031Z,17.70
2023-07-03T04:43:05.558Z,17.77
2023-07-03T04:45:39.354Z,17.84
2023-07-03T04:48:06.930Z,17.91
2023-07-03T04:50:34.839Z,17.85
2023-07-03T04:53:02.601Z,17.80
2023-07-03T04:55:30.706Z,17.67
2023-07-03T04:57:59.228Z,17.80
2023-07-03T05:00:28.203Z,17.96
2023-07-03T05:02:59.043Z,18.22
2023-07-03T05:05:27.954Z,18.47
2023-07-03T05:07:57.964Z,18.59
2023-07-03T05:10:27.204Z,18.80
2023-07-03T05:12:54.771Z,19.08
2023-07-03T05:15:22.886Z,19.02
2023-07-03T05:17:51.408Z,19.27
2023-07-03T05:20:21.114Z,19.32
2023-07-03T05:22:48.595Z,19.47
2023-07-03T05:25:17.936Z,19.60
2023-07-03T05:27:47.037Z,19.74
2023-07-03T05:30:15.303Z,19.51
2023-07-03T05:32:42.876Z,19.53
2023-07-03T05:35:11.767Z,19.70
2023-07-03T05:37:40.893Z,19.80
2023-07-03T05:40:09.986Z,19.95
2023-07-03T05:42:37.785Z,20.10
2023-07-03T05:45:08.502Z,19.78
2023-07-03T05:47:36.622Z,19.93
2023-07-03T05:50:04.908Z,20.00
2023-07-03T05:52:32.320Z,19.95
2023-07-03T05:55:01.639Z,19.92
2023-07-03T05:57:29.286Z,20.14
2023-07-03T05:59:57.211Z,20.27
2023-07-03T06:02:24.663Z,20.65
2023-07-03T06:04:52.470Z,20.92
2023-07-03T06:07:20.020Z,21.10
2023-07-03T06:09:47.944Z,21.43
2023-07-03T06:12:17.011Z,21.24
2023-07-03T06:15:03.188Z,21.17
2023-07-03T06:17:49.299Z,21.14
2023-07-03T06:20:43.828Z,21.10
2023-07-03T06:23:19.114Z,21.46
2023-07-03T06:25:50.331Z,21.61
2023-07-03T06:28:25.448Z,21.88
2023-07-03T06:30:55.255Z,21.95
2023-07-03T06:33:38.057Z,22.13
2023-07-03T06:36:09.551Z,22.17
2023-07-03T06:38:37.380Z,22.04
2023-07-03T06:43:54.540Z,22.21
2023-07-03T06:46:25.036Z,22.24
2023-07-03T06:48:57.366Z,22.42
2023-07-03T06:51:36.411Z,22.72
2023-07-03T06:54:04.555Z,22.69
2023-07-03T06:56:32.711Z,22.71
2023-07-03T06:59:14.460Z,22.58
2023-07-03T07:01:54.243Z,22.91
2023-07-03T07:04:28.531Z,23.02
2023-07-03T07:07:06.336Z,23.32
2023-07-03T07:09:34.751Z,23.61
2023-07-03T07:12:03.119Z,23.56
2023-07-03T07:14:32.116Z,23.61
2023-07-03T07:17:03.091Z,23.79
2023-07-03T07:19:36.548Z,23.57
2023-07-03T07:22:07.142Z,23.55
2023-07-03T07:24:48.062Z,23.96
2023-07-03T07:27:24.935Z,23.82
2023-07-03T07:29:56.231Z,23.63
2023-07-03T07:32:24.213Z,23.86
2023-07-03T07:34:58.800Z,23.89
2023-07-03T07:37:29.482Z,24.12
2023-07-03T07:39:57.274Z,23.80
2023-07-03T07:42:25.135Z,24.32
2023-07-03T07:44:59.593Z,24.58
2023-07-03T07:47:31.556Z,24.82
2023-07-03T07:50:03.274Z,24.71
2023-07-03T07:52:35.649Z,24.65
2023-07-03T07:55:03.396Z,24.24
2023-07-03T07:57:31.484Z,24.25
2023-07-03T08:00:05.612Z,25.00
2023-07-03T08:02:33.931Z,25.43
2023-07-03T08:07:50.911Z,24.65
2023-07-03T08:10:20.849Z,24.41
2023-07-03T08:12:57.526Z,24.04
2023-07-03T08:15:28.517Z,24.15
2023-07-03T08:17:58.457Z,24.41
2023-07-03T08:20:26.157Z,24.54
2023-07-03T08:22:54.058Z,24.89
2023-07-03T08:25:21.735Z,25.21
2023-07-03T08:27:50.276Z,25.54
2023-07-03T08:30:20.431Z,25.83
2023-07-03T08:32:52.613Z,25.49
2023-07-03T08:37:51.459Z,25.40
2023-07-03T08:40:21.861Z,25.75
2023-07-03T08:42:52.944Z,25.96
2023-07-03T08:45:30.733Z,26.01
2023-07-03T08:48:02.912Z,25.45
2023-07-03T08:50:37.010Z,25.38
2023-07-03T08:53:07.079Z,25.42
2023-07-03T08:55:42.369Z,24.74
2023-07-03T08:58:10.508Z,25.13
2023-07-03T09:00:51.707Z,25.41
2023-07-03T09:03:31.674Z,25.97
2023-07-03T09:06:13.666Z,26.00
2023-07-03T09:08:58.968Z,25.86
2023-07-03T09:11:30.608Z,25.67
2023-07-03T09:14:02.679Z,25.43
2023-07-03T09:16:32.312Z,25.28
2023-07-03T09:19:18.195Z,25.14
2023-07-03T09:21:46.841Z,25.44
2023-07-03T09:24:22.425Z,25.35
2023-07-03T09:26:58.584Z,25.38
2023-07-03T09:29:28.455Z,25.14
2023-07-03T09:31:55.897Z,25.16
2023-07-03T09:34:25.604Z,25.77
2023-07-03T09:36:55.067Z,26.22
2023-07-03T09:39:24.328Z,26.28
2023-07-03T09:41:51.863Z,26.36
2023-07-03T09:44:23.304Z,26.65
2023-07-03T09:46:56.694Z,26.67
2023-07-03T09:49:27.120Z,26.53
2023-07-03T09:51:55.327Z,26.12
2023-07-03T09:54:24.846Z,26.44
2023-07-03T09:56:52.419Z,26.53
2023-07-03T09:59:20.339Z,26.71
2023-07-03T10:07:01.288Z,27.27
2023-07-03T10:12:07.536Z,26.88
2023-07-03T10:14:38.447Z,26.95
2023-07-03T10:17:06.849Z,26.84
2023-07-03T10:19:35.325Z,27.13
2023-07-03T10:22:04.965Z,26.82
2023-07-03T10:24:32.908Z,27.07
2023-07-03T10:27:01.674Z,27.05
2023-07-03T10:29:33.680Z,27.08
2023-07-03T10:32:07.555Z,26.85
2023-07-03T10:34:48.381Z,27.68
2023-07-03T10:37:19.879Z,26.86
2023-07-03T10:39:54.157Z,26.51
2023-07-03T10:42:30.772Z,26.67
2023-07-03T10:45:06.290Z,26.33
2023-07-03T10:47:47.173Z,26.21
2023-07-03T10:50:27.523Z,26.02
2023-07-03T10:53:06.378Z,26.24
2023-07-03T10:55:41.201Z,26.49
2023-07-03T10:58:16.373Z,26.96
2023-07-03T11:01:01.555Z,27.35
2023-07-03T11:03:43.592Z,27.62
2023-07-03T11:06:21.920Z,27.73
2023-07-03T11:08:55.126Z,28.04
2023-07-03T11:11:36.357Z,28.13
2023-07-03T11:14:09.985Z,28.08
2023-07-03T11:16:53.684Z,27.67
2023-07-03T11:25:05.111Z,28.66
2023-07-03T11:30:15.772Z,28.89
2023-07-03T11:32:45.269Z,28.28
2023-07-03T11:40:37.779Z,27.31
2023-07-03T11:46:02.155Z,27.31
2023-07-03T11:48:33.434Z,27.54
2023-07-03T11:51:09.463Z,27.92
2023-07-03T11:53:40.115Z,27.92
2023-07-03T11:56:36.916Z,28.24
2023-07-03T11:59:09.593Z,28.43
2023-07-03T12:01:37.499Z,28.54
2023-07-03T12:04:07.193Z,28.07
2023-07-03T12:06:48.750Z,28.53
2023-07-03T12:09:30.791Z,29.06
2023-07-03T12:12:20.388Z,29.05
2023-07-03T12:14:55.976Z,28.75
2023-07-03T12:17:29.809Z,29.03
2023-07-03T12:20:06.405Z,29.24
2023-07-03T12:22:38.562Z,29.15
2023-07-03T12:25:11.809Z,29.07
2023-07-03T12:27:41.253Z,28.66
2023-07-03T12:30:12.815Z,28.96
2023-07-03T12:32:46.771Z,29.05
2023-07-03T12:35:20.861Z,29.05
2023-07-03T12:37:50.907Z,29.13
2023-07-03T12:40:25.936Z,29.17
2023-07-03T12:42:57.484Z,29.38
2023-07-03T12:45:31.229Z,29.40
2023-07-03T12:48:09.389Z,29.78
2023-07-03T12:50:47.810Z,29.92
2023-07-03T12:53:16.568Z,29.78
2023-07-03T12:55:50.347Z,30.24
2023-07-03T12:58:33.181Z,30.68
2023-07-03T13:01:03.048Z,30.78
2023-07-03T13:03:41.803Z,30.85
2023-07-03T13:06:15.261Z,30.47
2023-07-03T13:08:46.295Z,30.19
2023-07-03T13:11:14.125Z,29.85
2023-07-03T13:13:43.625Z,29.43
2023-07-03T13:16:15.740Z,29.54
2023-07-03T13:18:58.837Z,29.10
2023-07-03T13:21:26.837Z,29.57
2023-07-03T13:23:54.605Z,29.76
2023-07-03T13:26:25.100Z,29.15
2023-07-03T13:28:56.583Z,29.22
2023-07-03T13:31:32.030Z,29.41
2023-07-03T13:34:09.774Z,29.33
2023-07-03T13:36:41.111Z,29.34
2023-07-03T13:39:12.396Z,29.42
2023-07-03T13:41:42.006Z,29.72
2023-07-03T13:44:18.238Z,29.85
2023-07-03T13:46:47.929Z,30.04
2023-07-03T13:49:15.883Z,30.62
2023-07-03T13:51:45.273Z,30.08
2023-07-03T13:54:13.903Z,30.13
2023-07-03T13:56:42.940Z,30.42
2023-07-03T13:59:14.344Z,30.20
2023-07-03T14:01:45.579Z,29.69
2023-07-03T14:04:13.349Z,29.74
2023-07-03T14:06:41.466Z,29.76
2023-07-03T14:09:09.715Z,29.98
2023-07-03T14:11:40.524Z,29.77
2023-07-03T14:14:10.257Z,29.83
2023-07-03T14:16:39.611Z,30.27
2023-07-03T14:19:07.852Z,30.08
2023-07-03T14:21:36.278Z,30.61
2023-07-03T14:24:04.156Z,30.90
2023-07-03T14:26:33.566Z,30.91
2023-07-03T14:29:01.259Z,30.74
2023-07-03T14:31:31.924Z,30.79
2023-07-03T14:34:01.040Z,30.41
2023-07-03T14:36:29.189Z,30.19
2023-07-03T14:38:56.929Z,30.15
2023-07-03T14:41:24.968Z,30.11
2023-07-03T14:43:52.654Z,30.22
2023-07-03T14:46:20.739Z,30.07
2023-07-03T14:48:48.264Z,29.76
2023-07-03T14:51:20.588Z,29.80
2023-07-03T14:53:48.121Z,29.98
2023-07-03T14:56:16.086Z,29.83
2023-07-03T14:58:43.599Z,29.46
2023-07-03T15:01:11.525Z,29.74
2023-07-03T15:03:40.948Z,29.61
2023-07-03T15:06:09.172Z,29.59
2023-07-03T15:08:38.069Z,29.87
2023-07-03T15:11:05.858Z,29.95
2023-07-03T15:13:33.599Z,29.51
2023-07-03T15:16:01.830Z,29.67
2023-07-03T15:18:29.419Z,29.51
2023-07-03T15:20:57.886Z,29.42
2023-07-03T15:23:28.038Z,29.27
2023-07-03T15:26:22.324Z,29.40
2023-07-03T15:28:57.677Z,29.41
2023-07-03T15:31:30.206Z,29.35
2023-07-03T15:34:04.434Z,29.25
2023-07-03T15:36:33.211Z,29.31
2023-07-03T15:39:06.111Z,29.50
2023-07-03T15:41:40.629Z,29.34
2023-07-03T15:44:09.570Z,29.32
2023-07-03T15:46:38.958Z,29.29
2023-07-03T15:49:07.394Z,29.12
2023-07-03T15:51:35.779Z,29.16
2023-07-03T15:54:03.494Z,29.32
2023-07-03T15:56:31.883Z,29.24
2023-07-03T15:59:04.443Z,29.12
2023-07-03T16:01:32.558Z,29.02
2023-07-03T16:04:01.775Z,29.06
2023-07-03T16:06:35.417Z,29.29
2023-07-03T16:09:03.301Z,29.22
2023-07-03T16:11:31.443Z,29.38
2023-07-03T16:13:59.156Z,29.45
2023-07-03T16:16:28.651Z,29.20
2023-07-03T16:18:58.050Z,29.09
2023-07-03T16:21:28.526Z,28.99
2023-07-03T16:23:58.714Z,28.73
2023-07-03T16:26:28.219Z,28.73
2023-07-03T16:28:56.753Z,28.95
2023-07-03T16:31:27.355Z,28.87
2023-07-03T16:33:58.143Z,28.93
2023-07-03T16:36:28.341Z,28.72
2023-07-03T16:38:57.287Z,28.59
2023-07-03T16:41:26.449Z,28.59
2023-07-03T16:43:56.202Z,28.48
2023-07-03T16:46:26.587Z,28.25
2023-07-03T16:48:57.542Z,28.33
2023-07-03T16:51:27.199Z,28.50
2023-07-03T16:53:55.545Z,28.65
2023-07-03T16:56:27.090Z,28.73
2023-07-03T16:58:58.496Z,28.51
2023-07-03T17:01:28.969Z,28.69
2023-07-03T17:03:58.396Z,28.48
2023-07-03T17:06:30.048Z,28.59
2023-07-03T17:08:57.636Z,28.47
2023-07-03T17:11:25.949Z,28.76
2023-07-03T17:13:56.412Z,28.61
2023-07-03T17:16:27.884Z,28.45
2023-07-03T17:18:55.602Z,28.59
2023-07-03T17:21:28.051Z,28.33
2023-07-03T17:23:59.753Z,28.22
2023-07-03T17:26:27.999Z,28.27
2023-07-03T17:28:55.754Z,28.28
2023-07-03T17:31:24.162Z,28.24
2023-07-03T17:33:51.890Z,28.19
2023-07-03T17:36:22.759Z,27.92
2023-07-03T17:38:52.849Z,27.84
2023-07-03T17:41:21.638Z,27.67
2023-07-03T17:43:49.307Z,27.35
2023-07-03T17:46:22.478Z,27.37
2023-07-03T17:49:00.249Z,27.27
2023-07-03T17:51:28.321Z,27.19
2023-07-03T17:54:00.446Z,26.96
2023-07-03T17:56:28.468Z,26.73
2023-07-03T17:58:59.247Z,26.90
2023-07-03T18:01:27.410Z,26.99
2023-07-03T18:03:55.009Z,27.12
2023-07-03T18:06:23.231Z,26.99
2023-07-03T18:08:56.138Z,26.87
2023-07-03T18:11:25.405Z,26.64
2023-07-03T18:13:55.135Z,26.34
2023-07-03T18:16:25.206Z,26.28
2023-07-03T18:18:52.650Z,26.02
2023-07-03T18:21:20.573Z,25.96
2023-07-03T18:23:48.066Z,25.64
2023-07-03T18:26:20.521Z,25.46
2023-07-03T18:28:49.497Z,25.01
2023-07-03T18:31:17.814Z,24.82
2023-07-03T18:33:47.308Z,24.84
2023-07-03T18:36:15.494Z,24.69
2023-07-03T18:38:43.137Z,24.48
2023-07-03T18:41:11.070Z,24.44
2023-07-03T18:43:41.374Z,24.36
2023-07-03T18:46:11.373Z,24.32
2023-07-03T18:48:45.793Z,24.10
2023-07-03T18:51:14.458Z,24.05
2023-07-03T18:53:42.517Z,24.06
2023-07-03T18:56:18.973Z,24.03
2023-07-03T18:58:46.494Z,23.72
2023-07-03T19:01:17.417Z,23.70
2023-07-03T19:03:45.125Z,23.46
2023-07-03T19:06:15.581Z,23.36
2023-07-03T19:08:43.324Z,23.56
2023-07-03T19:11:13.923Z,23.48
2023-07-03T19:13:41.529Z,23.32
2023-07-03T19:16:16.170Z,23.20
2023-07-03T19:18:43.779Z,22.98
2023-07-03T19:21:12.763Z,22.92
2023-07-03T19:23:40.418Z,22.76
2023-07-03T19:26:09.674Z,22.62
2023-07-03T19:28:38.962Z,22.51
2023-07-03T19:31:07.180Z,22.33
2023-07-03T19:33:36.547Z,22.44
2023-07-03T19:36:13.161Z,22.35
2023-07-03T19:38:44.637Z,22.26
2023-07-03T19:41:27.087Z,22.14
2023-07-03T19:44:00.534Z,22.08
2023-07-03T19:46:28.299Z,22.08
2023-07-03T19:48:57.760Z,22.04
2023-07-03T19:51:33.929Z,21.91
2023-07-03T19:54:07.100Z,21.74
2023-07-03T19:56:37.052Z,21.66
2023-07-03T19:59:05.007Z,21.65
2023-07-03T20:01:32.857Z,21.68
2023-07-03T20:04:02.937Z,21.59
2023-07-03T20:06:30.365Z,21.52
2023-07-03T20:08:58.361Z,21.55
2023-07-03T20:11:26.262Z,21.45
2023-07-03T20:13:54.358Z,21.34
2023-07-03T20:16:31.139Z,21.16
2023-07-03T20:19:06.859Z,21.09
2023-07-03T20:21:34.460Z,21.06
2023-07-03T20:24:06.848Z,21.03
2023-07-03T20:26:43.623Z,21.15
2023-07-03T20:29:15.296Z,21.06
2023-07-03T20:31:48.678Z,21.00
2023-07-03T20:34:30.681Z,20.86
2023-07-03T20:37:01.617Z,20.84
2023-07-03T20:39:37.115Z,20.80
2023-07-03T20:42:07.244Z,20.79
2023-07-03T20:44:41.583Z,20.77
2023-07-03T20:47:13.185Z,20.68
2023-07-03T20:49:43.799Z,20.60
2023-07-03T20:52:12.862Z,20.57
2023-07-03T20:54:40.987Z,20.63
2023-07-03T20:57:16.803Z,20.69
2023-07-03T20:59:49.245Z,20.68
2023-07-03T21:02:16.801Z,20.63
2023-07-03T21:04:46.196Z,20.62
2023-07-03T21:07:13.743Z,20.48
2023-07-03T21:09:44.713Z,20.55
2023-07-03T21:12:12.356Z,20.43
2023-07-03T21:14:40.656Z,20.43
2023-07-03T21:17:08.052Z,20.36
2023-07-03T21:19:36.054Z,20.41
2023-07-03T21:22:05.686Z,20.43
2023-07-03T21:24:33.606Z,20.44
2023-07-03T21:27:01.386Z,20.46
2023-07-03T21:29:29.284Z,20.35
2023-07-03T21:31:56.827Z,20.36
2023-07-03T21:34:24.840Z,20.47
2023-07-03T21:36:52.263Z,20.28
2023-07-03T21:39:21.776Z,20.43
2023-07-03T21:41:49.271Z,20.30
2023-07-03T21:44:19.390Z,20.11
2023-07-03T21:46:46.790Z,20.18
2023-07-03T21:49:16.733Z,20.09
2023-07-03T21:51:44.303Z,20.01
2023-07-03T21:54:12.660Z,19.85
2023-07-03T21:56:41.833Z,19.76
2023-07-03T21:59:09.669Z,19.67
2023-07-03T22:01:39.293Z,19.51
2023-07-03T22:04:09.022Z,19.40
2023-07-03T22:06:36.691Z,19.15
2023-07-03T22:09:05.013Z,19.14
2023-07-03T22:11:32.647Z,19.20
2023-07-03T22:14:02.011Z,19.28
2023-07-03T22:16:29.604Z,19.34
2023-07-03T22:18:57.506Z,19.30
2023-07-03T22:21:25.404Z,19.22
2023-07-03T22:23:53.268Z,19.12
2023-07-03T22:26:20.992Z,19.27
2023-07-03T22:28:48.887Z,19.36
2023-07-03T22:31:17.789Z,19.18
2023-07-03T22:33:45.842Z,19.03
2023-07-03T22:36:13.813Z,18.88
2023-07-03T22:38:44.689Z,19.00
2023-07-03T22:41:12.064Z,19.14
2023-07-03T22:43:40.114Z,19.16
2023-07-03T22:46:09.262Z,19.01
2023-07-03T22:48:40.445Z,18.87
2023-07-03T22:51:08.165Z,18.87
2023-07-03T22:53:36.122Z,18.84
2023-07-03T22:56:04.035Z,18.96
2023-07-03T22:58:34.388Z,18.93
2023-07-03T23:01:07.091Z,18.87
2023-07-03T23:03:34.952Z,18.82
2023-07-03T23:06:04.731Z,18.75
2023-07-03T23:08:33.054Z,18.78
2023-07-03T23:11:01.359Z,18.65
2023-07-03T23:13:29.235Z,18.37
2023-07-03T23:15:59.553Z,18.36
2023-07-03T23:18:28.060Z,18.39
2023-07-03T23:20:57.649Z,18.54
2023-07-03T23:23:27.855Z,18.66
2023-07-03T23:25:56.321Z,18.59
2023-07-03T23:28:27.035Z,18.57
2023-07-03T23:30:55.422Z,18.69
2023-07-03T23:33:23.525Z,18.80
2023-07-03T23:35:51.164Z,18.79
2023-07-03T23:38:19.248Z,18.54
2023-07-03T23:40:48.368Z,18.30
2023-07-03T23:43:16.290Z,18.28
2023-07-03T23:45:43.800Z,18.21
2023-07-03T23:48:12.127Z,18.12
2023-07-03T23:50:39.840Z,18.08
2023-07-03T23:53:08.028Z,18.03
2023-07-03T23:55:35.874Z,18.01
2023-07-03T23:58:05.148Z,17.86
